KNUW/NUW METAR and TAF weather

Enter ICAO airport designator
Station Type Date Time Source
KNUW METAR 2021/07/29 01:56 UTC NOAA

KNUW 290156Z 24006KT 10SM FEW160 BKN250 16/11 A3011 RMK AO2 SLP195 T01610111


Station Type Date Time Source
KNUW Decoded METAR 2021/07/29 01:56 UTC NOAA

NAS WHIDBEY ISLAND, WA, United States (KNUW) 48-21N 122-39W 8M
Jul 28, 2021 - 09:56 PM EDT / 2021.07.29 0156 UTC
Wind: from the WSW (240 degrees) at 7 MPH (6 KT):0
Visibility: 10 mile(s):0
Sky conditions: mostly cloudy
Temperature: 61.0 F (16.1 C)
Dew Point: 52.0 F (11.1 C)
Relative Humidity: 72%
Pressure (altimeter): 30.11 in. Hg (1019 hPa)
ob: KNUW 290156Z 24006KT 10SM FEW160 BKN250 16/11 A3011 RMK AO2 SLP195 T01610111
cycle: 2

Station Type Date Time Source
KNUW TAF 2021/07/28 23:57 UTC NOAA

TAF KNUW 2823/2923 25007KT 9999 FEW150 BKN250 QNH3008INS
TEMPO 2823/2905 VRB06KT BKN250
FM290500 23006KT 9999 SCT250 QNH3010INS
TEMPO 2909/2915 VRB06KT 9999 BCFG FEW005 FEW250 T19/2823Z T11/2912Z FS30028

Example: see airport list